Time;durP1;ratioP1;P1;durP2;ratioP2;P2;SDS_P1;SDS_P2;PMS_P1;PMS_P2;Temp;Humidity;BMP_temperature;BMP_pressure;BME280_temperature;BME280_humidity;BME280_pressure;Samples;Min_cycle;Max_cycle;Signal;HPM_P1;HPM_P2
2021/06/27 00:02:16;;;;;;;15.32;7.15;;;18.60;99.90;;;;;;20906450;28;20150;-48
2021/06/27 00:12:19;;;;;;;14.23;7.30;;;18.60;99.90;;;;;;20898766;28;20086;-48
2021/06/27 00:22:20;;;;;;;12.57;6.07;;;18.60;99.90;;;;;;20898514;28;20155;-48
2021/06/27 00:32:21;;;;;;;14.82;5.93;;;18.40;99.90;;;;;;20908052;28;20160;-48
2021/06/27 00:42:22;;;;;;;17.23;8.05;;;18.40;99.90;;;;;;20897631;28;20041;-48
2021/06/27 00:52:25;;;;;;;16.33;7.50;;;18.30;99.90;;;;;;20899951;28;20101;-48
2021/06/27 01:02:26;;;;;;;15.60;6.75;;;18.20;99.90;;;;;;20905270;28;20505;-48
2021/06/27 01:12:27;;;;;;;15.70;6.20;;;18.30;99.90;;;;;;20900632;28;20164;-48
2021/06/27 01:22:28;;;;;;;15.75;6.15;;;18.30;99.90;;;;;;20903223;28;20448;-48
2021/06/27 01:32:31;;;;;;;12.75;6.32;;;18.30;99.90;;;;;;20898450;28;20286;-47
2021/06/27 01:42:32;;;;;;;15.70;6.50;;;18.10;99.90;;;;;;20900649;28;20179;-47
2021/06/27 01:52:34;;;;;;;13.57;6.22;;;18.00;99.90;;;;;;20896637;28;20048;-48
2021/06/27 02:02:35;;;;;;;16.58;7.05;;;18.10;99.90;;;;;;20902400;28;20130;-47
2021/06/27 02:12:38;;;;;;;15.77;6.65;;;18.00;99.90;;;;;;20908879;28;20266;-47
2021/06/27 02:22:39;;;;;;;17.90;6.75;;;18.00;99.90;;;;;;20897306;28;20063;-47
2021/06/27 02:42:43;;;;;;;16.70;7.20;;;18.10;99.90;;;;;;20879423;28;20049;-50
2021/06/27 02:52:45;;;;;;;21.13;7.38;;;18.10;99.90;;;;;;20903387;28;20507;-48
2021/06/27 03:02:46;;;;;;;17.08;7.38;;;18.10;99.90;;;;;;20903783;28;20040;-49
2021/06/27 03:12:50;;;;;;;18.55;7.85;;;18.20;99.90;;;;;;20892867;28;20041;-49
2021/06/27 03:22:51;;;;;;;21.92;8.10;;;18.10;99.90;;;;;;20894757;28;20117;-49
2021/06/27 03:32:52;;;;;;;17.42;7.90;;;18.10;99.90;;;;;;20896601;28;20049;-49
2021/06/27 03:42:54;;;;;;;21.42;8.98;;;18.10;99.90;;;;;;20915581;28;20040;-48
2021/06/27 03:52:55;;;;;;;23.48;8.98;;;18.20;99.90;;;;;;20914921;28;20057;-49
2021/06/27 04:02:56;;;;;;;16.50;8.32;;;18.10;99.90;;;;;;20915616;28;20124;-48
2021/06/27 04:12:58;;;;;;;21.30;7.97;;;18.10;99.90;;;;;;20906109;28;20064;-48
2021/06/27 04:22:59;;;;;;;19.45;8.23;;;18.20;99.90;;;;;;20906754;28;20040;-49
2021/06/27 04:33:01;;;;;;;21.67;7.88;;;18.20;99.90;;;;;;20909498;28;20077;-49
2021/06/27 04:43:03;;;;;;;16.13;7.05;;;18.20;99.90;;;;;;20903612;28;20047;-49
2021/06/27 04:53:09;;;;;;;18.77;8.38;;;18.20;99.90;;;;;;20905834;28;20056;-49
2021/06/27 05:03:10;;;;;;;21.67;8.40;;;18.30;99.90;;;;;;20906887;28;20032;-49
2021/06/27 05:13:12;;;;;;;18.10;6.43;;;18.50;99.90;;;;;;20903825;28;20048;-50
2021/06/27 05:23:13;;;;;;;18.20;7.75;;;18.60;99.90;;;;;;20895027;28;20047;-49
2021/06/27 05:33:14;;;;;;;14.57;6.70;;;18.80;99.90;;;;;;20904927;28;20051;-48
2021/06/27 05:43:15;;;;;;;18.38;6.72;;;18.90;99.90;;;;;;20897296;28;20629;-48
2021/06/27 05:53:17;;;;;;;14.48;6.90;;;19.00;99.90;;;;;;20891851;28;20049;-49
2021/06/27 06:03:18;;;;;;;16.05;6.65;;;19.20;99.90;;;;;;20892586;28;20087;-48
2021/06/27 06:13:21;;;;;;;16.25;7.75;;;19.20;99.90;;;;;;20894330;28;20102;-49
2021/06/27 06:23:22;;;;;;;16.77;5.88;;;19.30;99.90;;;;;;20905211;28;20590;-48
2021/06/27 06:33:23;;;;;;;21.15;7.72;;;19.50;99.90;;;;;;20881670;28;20569;-48
2021/06/27 06:43:25;;;;;;;16.88;6.93;;;19.50;99.90;;;;;;20906767;28;20048;-49
2021/06/27 06:53:26;;;;;;;10.73;5.00;;;19.50;99.90;;;;;;20887745;28;20060;-49
2021/06/27 07:03:28;;;;;;;14.45;5.80;;;19.60;99.90;;;;;;20884753;28;20037;-49
2021/06/27 07:13:29;;;;;;;15.52;5.53;;;19.50;99.90;;;;;;20907240;28;20495;-50
2021/06/27 07:23:31;;;;;;;13.40;5.88;;;19.70;99.90;;;;;;20919043;28;20487;-49
2021/06/27 07:33:32;;;;;;;12.70;6.10;;;19.70;99.90;;;;;;20560368;28;20553;-50
2021/06/27 07:43:34;;;;;;;16.90;6.80;;;20.00;99.90;;;;;;20534958;28;20049;-49
2021/06/27 07:53:36;;;;;;;16.65;6.65;;;20.10;99.90;;;;;;20480613;28;20049;-49
2021/06/27 08:03:37;;;;;;;13.43;5.75;;;20.30;99.90;;;;;;20458382;28;20418;-49
2021/06/27 08:13:39;;;;;;;13.20;6.43;;;20.70;99.90;;;;;;20435668;28;20551;-49
2021/06/27 08:23:40;;;;;;;10.98;5.35;;;20.90;99.90;;;;;;20444416;28;21090;-50
2021/06/27 08:33:41;;;;;;;13.25;6.10;;;21.10;99.90;;;;;;20525181;28;20415;-50
2021/06/27 08:43:43;;;;;;;9.13;5.07;;;21.40;99.90;;;;;;20783213;28;20527;-50
2021/06/27 08:53:44;;;;;;;10.85;4.80;;;21.60;99.90;;;;;;20904100;28;20507;-50
2021/06/27 09:03:46;;;;;;;9.82;5.13;;;21.90;99.90;;;;;;20903044;28;20053;-50
2021/06/27 09:13:48;;;;;;;8.90;4.13;;;22.40;99.90;;;;;;20893935;28;20055;-48
2021/06/27 09:23:49;;;;;;;8.27;4.80;;;22.70;99.90;;;;;;20908090;28;20037;-50
2021/06/27 09:33:59;;;;;;;9.55;5.00;;;23.20;99.90;;;;;;20759027;28;20190;-48
2021/06/27 09:44:03;;;;;;;7.78;3.80;;;23.40;99.90;;;;;;20821945;28;20688;-48
2021/06/27 09:54:12;;;;;;;9.55;4.57;;;23.60;99.90;;;;;;20886287;28;25133;-48
2021/06/27 10:04:27;;;;;;;8.80;4.32;;;24.10;99.90;;;;;;20542793;28;20141;-48
2021/06/27 10:14:51;;;;;;;8.57;4.38;;;24.30;99.90;;;;;;20528613;28;20986;-48
2021/06/27 10:24:55;;;;;;;5.53;3.42;;;24.40;99.90;;;;;;20623686;28;20054;-48
2021/06/27 10:34:57;;;;;;;5.35;2.97;;;24.80;99.90;;;;;;20889754;28;20512;-48
2021/06/27 10:44:59;;;;;;;6.35;3.22;;;24.90;99.90;;;;;;20882073;28;20647;-48
2021/06/27 10:55:19;;;;;;;5.75;2.80;;;25.30;99.90;;;;;;20880032;28;20566;-48
2021/06/27 11:05:32;;;;;;;5.07;3.15;;;25.50;99.90;;;;;;20882532;28;20045;-48
2021/06/27 11:15:36;;;;;;;5.93;3.05;;;25.80;99.90;;;;;;20881425;28;20049;-48
2021/06/27 11:25:40;;;;;;;7.50;3.80;;;25.20;99.90;;;;;;20866466;28;20040;-48
2021/06/27 11:35:53;;;;;;;5.68;3.00;;;25.10;99.90;;;;;;20890769;28;20048;-48
2021/06/27 11:45:55;;;;;;;7.07;3.15;;;25.00;99.90;;;;;;20880468;28;20667;-48
2021/06/27 11:56:08;;;;;;;6.63;3.55;;;24.90;99.90;;;;;;20889232;28;20479;-48
2021/06/27 12:06:11;;;;;;;4.75;2.92;;;25.90;99.90;;;;;;20897534;28;20476;-48
2021/06/27 12:16:14;;;;;;;4.50;2.20;;;26.10;99.90;;;;;;20901027;28;20360;-48
2021/06/27 12:26:21;;;;;;;6.47;3.22;;;26.40;99.90;;;;;;20900093;28;20080;-48
2021/06/27 12:36:27;;;;;;;6.03;2.60;;;26.60;99.90;;;;;;20895775;28;20049;-48
2021/06/27 12:46:39;;;;;;;4.45;2.33;;;26.70;99.90;;;;;;20750538;28;20044;-48
2021/06/27 12:56:43;;;;;;;4.18;2.10;;;26.70;99.90;;;;;;20519075;28;20571;-48
2021/06/27 13:07:03;;;;;;;4.78;2.30;;;26.60;99.90;;;;;;20519835;28;20342;-48
2021/06/27 13:17:10;;;;;;;5.22;2.83;;;27.10;99.90;;;;;;20524466;28;20895;-48
2021/06/27 13:27:12;;;;;;;4.35;2.20;;;27.50;99.90;;;;;;20530180;28;20241;-47
2021/06/27 13:37:13;;;;;;;3.55;1.98;;;27.60;99.90;;;;;;20533806;28;20056;-47
2021/06/27 13:47:15;;;;;;;3.80;2.20;;;28.20;99.90;;;;;;20567319;28;20608;-47
2021/06/27 13:57:16;;;;;;;4.47;2.50;;;28.30;99.90;;;;;;20885875;28;20141;-47
2021/06/27 14:07:20;;;;;;;9.00;4.53;;;28.20;99.90;;;;;;20879339;28;20048;-47
2021/06/27 14:17:21;;;;;;;2.95;1.50;;;27.90;99.90;;;;;;20886105;28;20155;-47
2021/06/27 14:27:22;;;;;;;2.60;1.52;;;28.00;99.90;;;;;;20867350;28;20044;-47
2021/06/27 14:37:23;;;;;;;3.40;1.92;;;28.10;99.90;;;;;;20892591;28;20040;-47
2021/06/27 14:47:25;;;;;;;3.20;1.65;;;28.10;98.90;;;;;;20770279;28;20139;-47
2021/06/27 14:57:26;;;;;;;3.60;1.67;;;27.90;99.90;;;;;;20533172;28;20705;-47
2021/06/27 15:07:27;;;;;;;3.90;1.90;;;27.90;99.70;;;;;;20570048;28;20053;-47
2021/06/27 15:17:29;;;;;;;3.65;1.92;;;27.90;99.90;;;;;;20601658;28;23821;-47
2021/06/27 15:27:30;;;;;;;4.15;2.25;;;27.80;99.90;;;;;;20541491;28;21116;-47
2021/06/27 15:37:31;;;;;;;3.08;1.80;;;27.60;99.90;;;;;;20541530;28;20552;-47
2021/06/27 15:47:33;;;;;;;3.70;2.05;;;27.50;99.90;;;;;;20542951;28;20835;-47
2021/06/27 15:57:34;;;;;;;3.97;2.17;;;27.10;99.90;;;;;;20570210;28;20932;-46
2021/06/27 16:07:36;;;;;;;2.58;1.35;;;27.10;99.90;;;;;;20484890;28;21488;-47
2021/06/27 16:17:42;;;;;;;3.65;1.80;;;27.00;99.90;;;;;;20455892;28;20650;-47
2021/06/27 16:27:43;;;;;;;3.28;1.70;;;26.90;99.90;;;;;;20586651;28;20618;-46
2021/06/27 16:37:45;;;;;;;4.63;2.13;;;26.80;99.80;;;;;;20745734;28;20036;-47
2021/06/27 16:47:47;;;;;;;4.18;1.85;;;26.40;99.90;;;;;;20885056;28;20048;-46
2021/06/27 16:57:49;;;;;;;2.30;1.30;;;26.70;99.90;;;;;;20883937;28;20445;-47
2021/06/27 17:07:50;;;;;;;1.88;1.13;;;25.90;99.90;;;;;;20881254;28;20052;-49
2021/06/27 17:17:51;;;;;;;1.92;0.90;;;24.60;99.90;;;;;;20890494;28;20040;-48
2021/06/27 17:27:54;;;;;;;1.98;1.00;;;23.80;99.90;;;;;;20875254;28;20037;-47
2021/06/27 17:37:55;;;;;;;5.10;1.00;;;23.40;99.90;;;;;;20897950;28;20171;-47
2021/06/27 17:47:57;;;;;;;1.55;0.85;;;22.80;99.90;;;;;;20888394;28;20040;-48
2021/06/27 17:57:58;;;;;;;2.13;1.00;;;22.30;99.90;;;;;;20896608;28;20043;-48
2021/06/27 18:07:59;;;;;;;5.65;1.30;;;21.60;99.90;;;;;;20888357;28;20033;-50
2021/06/27 18:18:03;;;;;;;5.35;2.20;;;20.00;99.90;;;;;;20891350;28;20119;-49
2021/06/27 18:28:04;;;;;;;5.25;1.80;;;19.50;99.90;;;;;;20882898;28;20044;-47
2021/06/27 18:38:06;;;;;;;3.08;1.20;;;19.20;99.90;;;;;;20767295;28;21089;-46
2021/06/27 18:48:08;;;;;;;3.13;1.45;;;19.10;99.90;;;;;;20490494;28;20044;-47
2021/06/27 18:58:10;;;;;;;2.65;1.80;;;19.00;99.90;;;;;;20478385;28;20464;-49
2021/06/27 19:08:12;;;;;;;2.88;1.50;;;19.10;99.90;;;;;;20483734;28;20554;-49
2021/06/27 19:18:13;;;;;;;3.75;1.58;;;19.10;99.90;;;;;;20488845;28;20136;-48
2021/06/27 19:28:14;;;;;;;2.92;1.52;;;19.00;99.90;;;;;;20480287;28;20626;-48
2021/06/27 19:38:16;;;;;;;3.17;1.60;;;19.10;99.90;;;;;;20471594;28;20057;-49
2021/06/27 19:48:20;;;;;;;2.92;1.48;;;19.00;99.90;;;;;;20461663;28;20549;-49
2021/06/27 19:58:21;;;;;;;2.97;1.70;;;19.00;99.90;;;;;;20452045;28;20067;-49
2021/06/27 20:08:23;;;;;;;2.85;1.13;;;18.80;99.90;;;;;;20448086;28;20711;-49
2021/06/27 20:18:25;;;;;;;4.13;1.73;;;18.70;99.90;;;;;;20738347;28;20440;-49
2021/06/27 20:28:26;;;;;;;2.58;1.20;;;18.70;99.90;;;;;;20883520;28;20119;-49
2021/06/27 20:38:27;;;;;;;3.38;1.60;;;18.60;99.90;;;;;;20892478;28;20048;-50
2021/06/27 20:48:29;;;;;;;4.25;1.90;;;18.60;99.90;;;;;;20893854;28;20037;-50
2021/06/27 20:58:30;;;;;;;3.47;1.80;;;18.60;99.90;;;;;;20889026;28;20051;-49
2021/06/27 21:08:32;;;;;;;4.72;2.35;;;18.80;99.90;;;;;;20894269;28;20448;-49
2021/06/27 21:18:33;;;;;;;6.43;2.90;;;18.80;99.90;;;;;;20890094;28;20037;-50
2021/06/27 21:28:34;;;;;;;4.72;2.22;;;18.70;99.90;;;;;;20892977;28;20063;-50
2021/06/27 21:38:35;;;;;;;4.80;2.42;;;18.70;99.90;;;;;;20888169;28;20040;-49
2021/06/27 21:48:37;;;;;;;5.43;1.90;;;18.70;99.90;;;;;;20892206;28;20150;-49
2021/06/27 21:58:40;;;;;;;5.88;2.35;;;18.70;99.90;;;;;;20883346;28;20037;-49
2021/06/27 22:08:43;;;;;;;5.95;2.60;;;18.70;99.90;;;;;;20859361;28;20127;-49
2021/06/27 22:18:45;;;;;;;5.60;2.92;;;18.80;99.90;;;;;;20883092;28;20040;-49
2021/06/27 22:28:46;;;;;;;7.50;2.75;;;18.80;99.90;;;;;;20885521;28;20190;-49
2021/06/27 22:38:47;;;;;;;4.53;2.20;;;18.80;99.90;;;;;;20884740;28;20358;-49
2021/06/27 22:48:49;;;;;;;4.47;1.92;;;18.80;99.90;;;;;;20877020;28;20049;-49
2021/06/27 22:58:51;;;;;;;5.40;2.63;;;18.80;99.90;;;;;;20885545;28;20094;-49
2021/06/27 23:08:54;;;;;;;3.42;1.80;;;18.70;99.90;;;;;;20885027;28;20051;-49
2021/06/27 23:18:55;;;;;;;5.05;2.60;;;18.70;99.90;;;;;;20893579;28;20044;-49
2021/06/27 23:28:56;;;;;;;4.93;2.28;;;18.70;99.90;;;;;;20900760;28;20045;-48
2021/06/27 23:38:58;;;;;;;5.50;2.67;;;18.70;99.90;;;;;;20881552;28;20048;-50
2021/06/27 23:48:59;;;;;;;3.92;1.95;;;18.50;99.90;;;;;;20896385;28;20040;-49
2021/06/27 23:59:00;;;;;;;5.88;2.35;;;18.50;99.90;;;;;;20897154;28;20076;-49
